Time;durP1;ratioP1;P1;durP2;ratioP2;P2;SDS_P1;SDS_P2;PMS_P1;PMS_P2;Temp;Humidity;BMP_temperature;BMP_pressure;BME280_temperature;BME280_humidity;BME280_pressure;Samples;Min_cycle;Max_cycle;Signal;HPM_P1;HPM_P2
2022/11/22 00:00:56;;;;;;;28.27;26.83;;;;;;;12.99;74.72;100294.22;5013149;28;102286;-53
2022/11/22 00:03:22;;;;;;;33.75;31.98;;;;;;;12.99;74.68;100299.69;5018813;28;102184;-53
2022/11/22 00:05:49;;;;;;;32.85;31.10;;;;;;;12.99;74.90;100296.13;5017176;28;103795;-53
2022/11/22 00:08:15;;;;;;;34.90;33.05;;;;;;;13.01;74.71;100301.28;4999186;28;102401;-53
2022/11/22 00:10:44;;;;;;;32.40;30.70;;;;;;;12.98;74.89;100289.88;5001130;28;102322;-53
2022/11/22 00:13:12;;;;;;;33.25;31.52;;;;;;;12.99;74.86;100287.94;5011775;28;102523;-53
2022/11/22 00:15:38;;;;;;;32.38;30.65;;;;;;;12.99;75.24;100282.47;5006445;28;103993;-53
2022/11/22 00:18:06;;;;;;;34.17;32.38;;;;;;;13.00;74.70;100292.28;4999391;28;102310;-53
2022/11/22 00:20:33;;;;;;;34.05;32.30;;;;;;;13.00;74.98;100305.94;4998530;28;102571;-53
2022/11/22 00:23:00;;;;;;;28.75;27.25;;;;;;;12.99;74.91;100310.59;5018392;28;102441;-53
2022/11/22 00:25:26;;;;;;;33.22;31.50;;;;;;;12.99;74.82;100307.06;5015833;28;104135;-53
2022/11/22 00:27:53;;;;;;;32.03;30.35;;;;;;;12.99;74.61;100304.34;5018138;28;102260;-53
2022/11/22 00:30:21;;;;;;;30.63;29.00;;;;;;;12.98;74.66;100305.41;5009877;28;102250;-53
2022/11/22 00:32:48;;;;;;;33.77;31.97;;;;;;;12.98;74.76;100310.88;5018089;28;102251;-53
2022/11/22 00:35:17;;;;;;;33.47;31.73;;;;;;;12.98;74.78;100319.09;5014025;28;108140;-55
2022/11/22 00:37:43;;;;;;;29.55;28.02;;;;;;;12.97;74.84;100318.28;5017254;28;101954;-54
2022/11/22 00:40:10;;;;;;;29.92;28.35;;;;;;;12.97;74.79;100317.47;5003801;28;102204;-54
2022/11/22 00:42:37;;;;;;;31.20;29.58;;;;;;;12.97;74.53;100307.34;4998462;28;102324;-54
2022/11/22 00:45:04;;;;;;;31.25;29.65;;;;;;;12.98;74.62;100297.22;5004391;28;103911;-53
2022/11/22 00:47:32;;;;;;;30.13;28.52;;;;;;;12.97;74.77;100296.41;5010071;28;102127;-54
2022/11/22 00:49:58;;;;;;;31.63;29.95;;;;;;;12.97;74.75;100285.50;5016755;28;102119;-53
2022/11/22 00:52:25;;;;;;;30.02;28.50;;;;;;;12.98;74.63;100286.31;5007105;28;102581;-53
2022/11/22 00:54:51;;;;;;;29.35;27.85;;;;;;;12.96;74.55;100283.06;4996588;28;104072;-53
2022/11/22 00:57:18;;;;;;;30.75;29.17;;;;;;;12.96;74.49;100267.50;4996798;28;102021;-53
2022/11/22 00:59:44;;;;;;;30.83;29.23;;;;;;;12.99;74.52;100266.09;4996506;28;102209;-53
2022/11/22 01:02:11;;;;;;;31.30;29.70;;;;;;;12.99;74.49;100263.38;5010841;28;102339;-53
2022/11/22 01:04:39;;;;;;;36.85;34.90;;;;;;;12.99;74.51;100266.09;5003565;28;103966;-53
2022/11/22 01:07:05;;;;;;;32.80;31.00;;;;;;;12.98;74.53;100278.09;5016532;28;102147;-53
2022/11/22 01:09:32;;;;;;;32.47;30.80;;;;;;;12.97;74.68;100281.97;5012937;28;102367;-53
2022/11/22 01:11:59;;;;;;;35.30;33.47;;;;;;;12.97;74.68;100295.63;5009702;28;102134;-53
2022/11/22 01:14:25;;;;;;;32.75;30.98;;;;;;;12.96;74.75;100305.72;5000425;28;104226;-53
2022/11/22 01:16:54;;;;;;;36.33;34.45;;;;;;;12.97;74.66;100317.47;4997003;28;102208;-53
2022/11/22 01:19:20;;;;;;;33.80;32.08;;;;;;;12.96;74.59;100321.31;4996856;28;102426;-53
2022/11/22 01:21:48;;;;;;;32.08;30.42;;;;;;;12.98;74.41;100321.81;4997373;28;102643;-53
2022/11/22 01:24:15;;;;;;;30.40;28.77;;;;;;;12.97;74.61;100326.47;5007441;28;104136;-54
2022/11/22 01:26:41;;;;;;;32.58;30.83;;;;;;;12.98;74.72;100338.19;5014124;28;102012;-53
2022/11/22 01:29:08;;;;;;;35.53;33.72;;;;;;;12.98;74.58;100335.47;5012892;28;102330;-53
2022/11/22 01:31:34;;;;;;;37.20;35.28;;;;;;;12.98;74.54;100346.41;5001534;28;102708;-54
2022/11/22 01:34:03;;;;;;;33.90;32.13;;;;;;;12.98;74.59;100354.59;4996570;28;104039;-54
2022/11/22 01:36:31;;;;;;;35.47;33.60;;;;;;;12.98;74.50;100347.22;4996488;28;102365;-54
2022/11/22 01:38:59;;;;;;;32.90;31.20;;;;;;;12.96;74.54;100343.97;5002146;28;103041;-53
2022/11/22 01:41:26;;;;;;;33.97;32.20;;;;;;;12.98;74.48;100340.94;5009713;28;102115;-53
2022/11/22 01:43:52;;;;;;;33.58;31.83;;;;;;;12.95;74.69;100339.63;5004198;28;104115;-53
2022/11/22 01:46:28;;;;;;;31.52;29.88;;;;;;;12.96;74.57;100340.44;5011417;28;102412;-53
2022/11/22 01:49:00;;;;;;;31.95;30.30;;;;;;;12.98;74.38;100335.47;5015286;28;102453;-53
2022/11/22 01:51:31;;;;;;;33.10;31.40;;;;;;;12.97;74.40;100333.84;5006639;28;102404;-53
2022/11/22 01:54:05;;;;;;;32.28;30.52;;;;;;;12.98;74.65;100340.94;4995960;28;104155;-53
2022/11/22 01:56:33;;;;;;;30.25;28.70;;;;;;;12.97;74.55;100323.75;5011524;28;102452;-53
2022/11/22 01:59:05;;;;;;;33.08;31.35;;;;;;;12.97;74.63;100322.94;5004049;28;102126;-53
2022/11/22 02:01:34;;;;;;;31.02;29.40;;;;;;;12.96;74.57;100324.03;5008418;28;102381;-53
2022/11/22 02:04:03;;;;;;;33.13;31.40;;;;;;;12.95;74.58;100322.44;4999665;28;104060;-53
2022/11/22 02:06:37;;;;;;;32.53;30.85;;;;;;;12.99;74.60;100331.66;5003259;28;102431;-53
2022/11/22 02:09:10;;;;;;;32.83;31.10;;;;;;;12.96;74.56;100324.84;5004570;28;102168;-53
2022/11/22 02:11:42;;;;;;;34.03;32.22;;;;;;;12.97;74.72;100312.00;5005971;28;103022;-53
2022/11/22 02:14:09;;;;;;;32.22;30.50;;;;;;;12.96;74.66;100315.84;5005402;28;103919;-53
2022/11/22 02:16:38;;;;;;;32.92;31.08;;;;;;;12.98;74.56;100325.38;5001951;28;102567;-53
2022/11/22 02:19:10;;;;;;;29.25;27.70;;;;;;;12.99;74.51;100337.13;5000833;28;102986;-54
2022/11/22 02:21:37;;;;;;;29.25;27.70;;;;;;;12.98;74.56;100349.13;5004736;28;102266;-56
2022/11/22 02:24:10;;;;;;;31.55;29.88;;;;;;;12.98;74.64;100368.25;5002766;28;104060;-54
2022/11/22 02:26:39;;;;;;;32.92;31.20;;;;;;;12.98;74.47;100365.50;5001812;28;102664;-53
2022/11/22 02:29:06;;;;;;;32.07;30.40;;;;;;;12.98;74.67;100368.25;5004517;28;102354;-54
2022/11/22 02:31:39;;;;;;;32.42;30.73;;;;;;;12.98;74.70;100379.19;5005384;28;102368;-53
2022/11/22 02:34:06;;;;;;;32.30;30.55;;;;;;;12.99;74.57;100387.09;5004752;28;103981;-53
2022/11/22 02:36:38;;;;;;;30.52;28.90;;;;;;;12.99;74.51;100387.09;4999769;28;102763;-53
2022/11/22 02:39:06;;;;;;;32.70;30.95;;;;;;;12.99;74.51;100387.09;4999485;28;102383;-53
2022/11/22 02:41:34;;;;;;;33.67;31.80;;;;;;;12.98;74.53;100390.09;5003063;28;102121;-53
2022/11/22 02:44:03;;;;;;;32.50;30.80;;;;;;;12.97;74.53;100396.69;5004759;28;104277;-53
2022/11/22 02:46:29;;;;;;;31.95;30.27;;;;;;;12.97;74.54;100394.75;5000965;28;102372;-53
2022/11/22 02:48:56;;;;;;;35.17;33.30;;;;;;;12.96;74.58;100392.34;5004508;28;102820;-53
2022/11/22 02:51:23;;;;;;;29.90;28.30;;;;;;;12.96;74.52;100392.34;5006115;28;102624;-53
2022/11/22 02:53:49;;;;;;;30.65;29.00;;;;;;;12.97;74.53;100393.94;5000014;28;103796;-53
2022/11/22 02:56:16;;;;;;;34.17;32.38;;;;;;;12.98;74.42;100392.84;5001629;28;102510;-53
2022/11/22 02:58:44;;;;;;;31.98;30.33;;;;;;;12.96;74.56;100389.59;5003673;28;102035;-53
2022/11/22 03:01:12;;;;;;;30.83;29.23;;;;;;;12.96;74.43;100393.13;5000266;28;102204;-53
2022/11/22 03:03:39;;;;;;;27.40;26.00;;;;;;;12.94;74.57;100398.06;5003041;28;104213;-53
2022/11/22 03:06:06;;;;;;;31.00;29.40;;;;;;;12.96;74.56;100408.72;5011328;28;102715;-53
2022/11/22 03:08:34;;;;;;;32.92;31.23;;;;;;;12.95;74.65;100412.56;5008967;28;102653;-53
2022/11/22 03:11:00;;;;;;;34.38;32.58;;;;;;;12.96;74.53;100411.44;5008410;28;102374;-53
2022/11/22 03:13:28;;;;;;;30.77;29.15;;;;;;;12.94;74.56;100406.25;5007483;28;104032;-53
2022/11/22 03:15:54;;;;;;;34.72;32.92;;;;;;;12.94;74.63;100400.81;5001330;28;102481;-53
2022/11/22 03:18:22;;;;;;;34.17;32.38;;;;;;;12.96;74.39;100395.88;5007271;28;101951;-53
2022/11/22 03:20:50;;;;;;;33.85;32.10;;;;;;;12.97;74.54;100402.13;5002955;28;102199;-53
2022/11/22 03:23:17;;;;;;;33.13;31.35;;;;;;;12.96;74.46;100408.72;5003408;28;104479;-53
2022/11/22 03:25:44;;;;;;;32.40;30.73;;;;;;;12.94;74.54;100400.00;4995489;28;102343;-53
2022/11/22 03:28:10;;;;;;;33.90;32.15;;;;;;;12.95;74.59;100399.72;5016045;28;102227;-53
2022/11/22 03:30:39;;;;;;;37.03;35.08;;;;;;;12.95;74.61;100394.25;5013617;28;103703;-53
2022/11/22 03:33:06;;;;;;;31.90;30.27;;;;;;;12.95;74.47;100407.09;4998302;28;104225;-53
2022/11/22 03:35:34;;;;;;;34.53;32.75;;;;;;;12.95;74.49;100394.25;4999064;28;102487;-53
2022/11/22 03:38:01;;;;;;;37.25;35.25;;;;;;;12.94;74.47;100400.00;5014250;28;102416;-53
2022/11/22 03:40:27;;;;;;;31.85;30.15;;;;;;;12.94;74.47;100395.34;5004868;28;102438;-53
2022/11/22 03:42:53;;;;;;;35.38;33.53;;;;;;;12.96;74.56;100397.78;5011193;28;103922;-53
2022/11/22 03:45:20;;;;;;;34.40;32.60;;;;;;;12.95;74.47;100396.97;5018468;28;102199;-53
2022/11/22 03:47:47;;;;;;;35.17;33.28;;;;;;;12.94;74.60;100400.81;5017613;28;102195;-53
2022/11/22 03:50:14;;;;;;;32.15;30.48;;;;;;;12.96;74.43;100401.34;5018432;28;102088;-54
2022/11/22 03:52:42;;;;;;;34.97;33.15;;;;;;;12.96;74.42;100400.53;4998785;28;103948;-53
2022/11/22 03:55:09;;;;;;;33.35;31.60;;;;;;;12.98;74.48;100401.03;5004327;28;102296;-53
2022/11/22 03:57:36;;;;;;;34.58;32.78;;;;;;;12.96;74.43;100392.34;5016623;28;102210;-53
2022/11/22 04:00:04;;;;;;;30.13;28.55;;;;;;;12.96;74.65;100403.25;5013836;28;102086;-53
2022/11/22 04:02:31;;;;;;;33.28;31.55;;;;;;;12.94;74.72;100400.00;5016646;28;103997;-53
2022/11/22 04:04:57;;;;;;;34.65;32.75;;;;;;;12.95;74.57;100396.97;5018596;28;102542;-53
2022/11/22 04:07:24;;;;;;;33.38;31.63;;;;;;;12.96;74.50;100393.13;5005740;28;102301;-54
2022/11/22 04:09:51;;;;;;;33.55;31.75;;;;;;;12.94;74.60;100400.00;5002679;28;102136;-53
2022/11/22 04:12:18;;;;;;;30.98;29.33;;;;;;;12.94;74.63;100402.72;5014389;28;103945;-53
2022/11/22 04:17:40;;;;;;;31.52;29.80;;;;;;;12.96;74.49;100406.00;5013047;28;102333;-53
2022/11/22 04:22:58;;;;;;;33.05;31.23;;;;;;;12.94;74.47;100406.25;5009880;28;103975;-53
2022/11/22 04:25:27;;;;;;;33.78;31.98;;;;;;;12.94;74.65;100416.38;5017603;28;102499;-53
2022/11/22 04:27:54;;;;;;;31.77;30.08;;;;;;;12.95;74.34;100428.97;5001236;28;102352;-53
2022/11/22 04:30:21;;;;;;;31.30;29.60;;;;;;;12.96;74.51;100436.03;5014939;28;102068;-53
2022/11/22 04:32:51;;;;;;;32.05;30.30;;;;;;;12.95;74.57;100439.88;4997368;28;103877;-53
2022/11/22 04:35:18;;;;;;;32.78;30.88;;;;;;;12.95;74.45;100434.41;4998496;28;102430;-53
2022/11/22 04:37:49;;;;;;;34.88;33.00;;;;;;;12.94;74.33;100421.84;4997349;28;102413;-53
2022/11/22 04:40:16;;;;;;;33.53;31.73;;;;;;;12.93;74.59;100421.03;5002151;28;102335;-53
2022/11/22 04:45:30;;;;;;;31.60;29.90;;;;;;;12.94;74.54;100427.31;5005674;28;102152;-53
2022/11/22 04:47:57;;;;;;;31.63;29.88;;;;;;;12.94;74.49;100436.31;5002378;28;102214;-53
2022/11/22 04:53:10;;;;;;;33.10;31.23;;;;;;;12.92;74.68;100413.16;4998061;28;103943;-53
2022/11/22 04:55:36;;;;;;;33.03;31.23;;;;;;;12.91;74.61;100412.34;5001354;28;102085;-53
2022/11/22 04:58:05;;;;;;;30.98;29.25;;;;;;;12.92;74.47;100407.69;5004301;28;102269;-53
2022/11/22 05:00:31;;;;;;;33.38;31.58;;;;;;;12.93;74.40;100414.78;5013046;28;102062;-53
2022/11/22 05:02:59;;;;;;;36.28;34.28;;;;;;;12.93;74.56;100425.69;5003693;28;103913;-53
2022/11/22 05:05:26;;;;;;;31.77;30.00;;;;;;;12.94;74.44;100433.59;5003948;28;102687;-53
2022/11/22 05:07:54;;;;;;;34.42;32.50;;;;;;;12.94;74.44;100421.84;4999059;28;102400;-54
2022/11/22 05:10:20;;;;;;;36.22;34.22;;;;;;;12.94;74.36;100439.03;5001199;28;102179;-53
2022/11/22 05:12:50;;;;;;;35.83;33.88;;;;;;;12.93;74.43;100436.63;5005450;28;104017;-53
2022/11/22 05:15:18;;;;;;;32.05;30.27;;;;;;;12.94;74.34;100447.25;5013298;28;102518;-53
2022/11/22 05:17:46;;;;;;;35.13;33.17;;;;;;;12.93;74.51;100456.53;5005570;28;102347;-53
2022/11/22 05:20:12;;;;;;;34.38;32.40;;;;;;;12.93;74.51;100458.47;5003327;28;102212;-53
2022/11/22 05:25:24;;;;;;;30.88;29.17;;;;;;;12.92;74.42;100460.41;5011740;28;101943;-54
2022/11/22 05:27:53;;;;;;;34.08;32.10;;;;;;;12.92;74.48;100459.59;5008141;28;102107;-54
2022/11/22 05:30:23;;;;;;;32.17;30.42;;;;;;;12.93;74.48;100453.00;5014952;28;102194;-53
2022/11/22 05:32:49;;;;;;;35.15;33.22;;;;;;;12.91;74.48;100461.50;5002953;28;103904;-53
2022/11/22 05:35:16;;;;;;;36.80;34.75;;;;;;;12.92;74.59;100467.78;4999847;28;102424;-53
2022/11/22 05:37:43;;;;;;;38.65;36.35;;;;;;;12.92;74.54;100475.97;5006704;28;102580;-53
2022/11/22 05:40:10;;;;;;;36.45;34.42;;;;;;;12.92;74.54;100465.03;5004375;28;102221;-53
2022/11/22 05:42:37;;;;;;;34.50;32.60;;;;;;;12.93;74.54;100483.06;5001786;28;103958;-53
2022/11/22 05:45:06;;;;;;;35.83;33.80;;;;;;;12.92;74.51;100481.44;5006803;28;102307;-53
2022/11/22 05:47:35;;;;;;;34.88;32.90;;;;;;;12.92;74.48;100486.91;5004061;28;102630;-53
2022/11/22 05:50:03;;;;;;;33.95;32.05;;;;;;;12.92;74.61;100506.00;4997717;28;102216;-53
2022/11/22 05:52:30;;;;;;;34.88;32.88;;;;;;;12.94;74.38;100525.63;5003109;28;103879;-53
2022/11/22 05:54:56;;;;;;;37.28;35.20;;;;;;;12.93;74.51;100521.28;4999177;28;102402;-53
2022/11/22 05:57:23;;;;;;;36.15;34.15;;;;;;;12.91;74.40;100510.66;5004590;28;102593;-53
2022/11/22 05:59:51;;;;;;;34.63;32.72;;;;;;;12.92;74.47;100495.09;5001162;28;102303;-53
2022/11/22 06:02:18;;;;;;;37.22;35.08;;;;;;;12.91;74.41;100479.78;5003107;28;103928;-53
2022/11/22 06:04:46;;;;;;;38.70;36.50;;;;;;;12.92;74.44;100482.25;5002860;28;102077;-53
2022/11/22 06:07:13;;;;;;;34.92;32.97;;;;;;;12.92;74.47;100493.16;5000945;28;102875;-53
2022/11/22 06:09:39;;;;;;;35.60;33.10;;;;;;;12.92;74.41;100492.34;4998063;28;102634;-53
2022/11/22 06:12:07;;;;;;;34.80;32.85;;;;;;;12.91;74.37;100498.91;5004071;28;104213;-53
2022/11/22 06:14:34;;;;;;;36.70;34.60;;;;;;;12.90;74.39;100498.09;5003900;28;102479;-53
2022/11/22 06:17:02;;;;;;;36.80;34.65;;;;;;;12.93;74.01;100504.91;5006596;28;102579;-53
2022/11/22 06:19:28;;;;;;;38.10;35.83;;;;;;;12.92;74.17;100522.41;5002027;28;102671;-53
2022/11/22 06:21:56;;;;;;;40.20;37.97;;;;;;;12.90;74.19;100536.34;4996018;28;103893;-53
2022/11/22 06:24:22;;;;;;;39.55;37.25;;;;;;;12.90;74.05;100539.06;5001867;28;105628;-53
2022/11/22 06:26:49;;;;;;;41.08;38.70;;;;;;;12.89;74.21;100533.91;5004583;28;102368;-53
2022/11/22 06:29:16;;;;;;;40.45;37.97;;;;;;;12.90;74.17;100524.59;5000610;28;102681;-53
2022/11/22 06:31:42;;;;;;;40.83;38.45;;;;;;;12.88;74.04;100510.44;5000858;28;104049;-53
2022/11/22 06:34:11;;;;;;;36.55;34.40;;;;;;;12.90;73.94;100519.13;4997557;28;102524;-53
2022/11/22 06:36:40;;;;;;;38.55;36.30;;;;;;;12.89;73.84;100520.25;5005024;28;102187;-54
2022/11/22 06:39:08;;;;;;;40.53;38.13;;;;;;;12.89;73.81;100528.44;5000803;28;102662;-53
2022/11/22 06:41:36;;;;;;;40.23;37.73;;;;;;;12.88;73.90;100522.16;4999001;28;104168;-53
2022/11/22 06:44:04;;;;;;;40.45;37.92;;;;;;;12.88;73.91;100518.63;5012762;28;101906;-53
2022/11/22 06:46:32;;;;;;;37.47;35.17;;;;;;;12.88;73.83;100507.72;5015995;28;102961;-53
2022/11/22 06:49:00;;;;;;;40.38;37.90;;;;;;;12.88;73.57;100499.50;5002087;28;102695;-53
2022/11/22 06:51:28;;;;;;;42.53;39.80;;;;;;;12.88;73.74;100499.50;4996575;28;104109;-53
2022/11/22 06:53:56;;;;;;;42.30;39.70;;;;;;;12.87;73.84;100516.97;5003548;28;102312;-53
2022/11/22 06:56:25;;;;;;;45.10;42.20;;;;;;;12.88;73.68;100521.38;4996155;28;102287;-53
2022/11/22 06:58:53;;;;;;;41.75;39.08;;;;;;;12.88;73.43;100532.28;4997975;28;102352;-54
2022/11/22 07:01:21;;;;;;;40.63;38.13;;;;;;;12.88;73.51;100526.81;4996382;28;104876;-53
2022/11/22 07:03:48;;;;;;;41.97;39.35;;;;;;;12.87;73.46;100530.63;5004072;28;102161;-53
2022/11/22 07:06:17;;;;;;;42.10;39.53;;;;;;;12.87;73.31;100536.91;4997560;28;102042;-53
2022/11/22 07:08:45;;;;;;;45.28;42.58;;;;;;;12.87;73.29;100544.28;5000303;28;102387;-53
2022/11/22 07:11:15;;;;;;;42.72;40.15;;;;;;;12.86;73.57;100550.88;4999836;28;104039;-53
2022/11/22 07:13:45;;;;;;;42.33;39.90;;;;;;;12.85;73.47;100550.06;5002684;28;102463;-53
2022/11/22 07:16:13;;;;;;;40.58;38.28;;;;;;;12.87;73.32;100564.22;4998211;28;101953;-53
2022/11/22 07:18:41;;;;;;;42.33;39.80;;;;;;;12.86;73.81;100573.53;5001447;28;102145;-53
2022/11/22 07:21:09;;;;;;;43.40;40.75;;;;;;;12.88;73.54;100576.00;5002287;28;104081;-53
2022/11/22 07:23:37;;;;;;;42.77;40.13;;;;;;;12.88;73.51;100584.19;4995786;28;102052;-53
2022/11/22 07:26:04;;;;;;;40.10;37.70;;;;;;;12.89;73.40;100596.72;4999427;28;102560;-53
2022/11/22 07:28:32;;;;;;;44.17;41.47;;;;;;;12.89;73.53;100599.47;4998711;28;102279;-53
2022/11/22 07:31:03;;;;;;;44.30;41.58;;;;;;;12.89;73.70;100602.19;4998263;28;103905;-54
2022/11/22 07:33:31;;;;;;;44.42;41.78;;;;;;;12.89;73.32;100604.91;4999065;28;102902;-54
2022/11/22 07:36:03;;;;;;;45.80;43.00;;;;;;;12.89;73.66;100610.38;4996741;28;102246;-53
2022/11/22 07:38:29;;;;;;;44.13;41.47;;;;;;;12.89;73.45;100594.00;5009750;28;102630;-53
2022/11/22 07:40:56;;;;;;;42.05;39.55;;;;;;;12.91;73.67;100605.44;5007723;28;103893;-53
2022/11/22 07:43:23;;;;;;;42.65;40.05;;;;;;;12.90;73.52;100601.06;5004937;28;102033;-53
2022/11/22 07:45:50;;;;;;;41.22;38.63;;;;;;;12.91;73.58;100610.88;5000582;28;102435;-53
2022/11/22 07:48:18;;;;;;;48.38;45.47;;;;;;;12.88;73.66;100608.75;5007039;28;102957;-53
2022/11/22 07:50:44;;;;;;;44.08;41.42;;;;;;;12.87;73.73;100615.31;4993368;28;104007;-53
2022/11/22 07:53:11;;;;;;;45.63;42.97;;;;;;;12.88;73.70;100614.22;4994996;28;102334;-53
2022/11/22 07:55:38;;;;;;;44.45;41.85;;;;;;;12.88;73.80;100608.75;4995393;28;102216;-54
2022/11/22 07:58:04;;;;;;;42.05;39.50;;;;;;;12.88;73.58;100612.31;5003107;28;102454;-53
2022/11/22 08:00:31;;;;;;;47.55;44.75;;;;;;;12.89;73.73;100622.13;5003474;28;103962;-53
2022/11/22 08:02:58;;;;;;;39.58;37.22;;;;;;;12.88;73.70;100636.06;5003001;28;102624;-53
2022/11/22 08:05:26;;;;;;;41.38;38.90;;;;;;;12.88;73.71;100636.88;5004827;28;102205;-53
2022/11/22 08:07:53;;;;;;;41.45;39.00;;;;;;;12.89;73.80;100643.16;4997505;28;102755;-53
2022/11/22 08:10:21;;;;;;;46.55;43.75;;;;;;;12.90;73.77;100636.59;4993011;28;103910;-53
2022/11/22 08:12:47;;;;;;;43.65;41.10;;;;;;;12.89;73.77;100633.03;5002197;28;102586;-53
2022/11/22 08:15:15;;;;;;;45.20;42.60;;;;;;;12.88;73.65;100631.41;5003302;28;102045;-53
2022/11/22 08:17:42;;;;;;;44.75;42.13;;;;;;;12.88;73.73;100625.16;5004359;28;102104;-53
2022/11/22 08:20:11;;;;;;;44.58;42.00;;;;;;;12.89;73.71;100621.31;5002818;28;104009;-53
2022/11/22 08:22:39;;;;;;;45.55;42.90;;;;;;;12.89;73.65;100627.59;5015445;28;102482;-53
2022/11/22 08:25:11;;;;;;;42.40;39.85;;;;;;;12.88;73.70;100627.88;5013962;28;102500;-53
2022/11/22 08:27:42;;;;;;;37.45;35.25;;;;;;;12.90;73.85;100633.84;5005337;28;102442;-53
2022/11/22 08:30:10;;;;;;;43.77;41.13;;;;;;;12.89;73.69;100630.31;5012114;28;103898;-53
2022/11/22 08:32:37;;;;;;;40.78;38.45;;;;;;;12.89;73.71;100624.03;5012415;28;102456;-54
2022/11/22 08:35:05;;;;;;;41.58;39.20;;;;;;;12.90;73.84;100628.38;5015647;28;102323;-53
2022/11/22 08:37:33;;;;;;;43.35;40.88;;;;;;;12.91;73.77;100640.94;5011349;28;102553;-53
2022/11/22 08:40:01;;;;;;;41.13;38.75;;;;;;;12.90;73.84;100639.31;5002661;28;103843;-53
2022/11/22 08:42:28;;;;;;;41.43;39.03;;;;;;;12.90;73.88;100636.59;5001189;28;103601;-53
2022/11/22 08:44:55;;;;;;;43.10;40.67;;;;;;;12.89;73.77;100634.97;5015657;28;102462;-53
2022/11/22 08:47:21;;;;;;;41.15;38.75;;;;;;;12.88;73.85;100625.97;5016593;28;102709;-53
2022/11/22 08:49:48;;;;;;;42.90;40.50;;;;;;;12.89;73.83;100629.50;5000394;28;103997;-53
2022/11/22 08:52:15;;;;;;;45.38;42.78;;;;;;;12.90;73.68;100634.66;5011815;28;102175;-53
2022/11/22 08:54:41;;;;;;;41.22;38.78;;;;;;;12.90;73.94;100633.84;5010894;28;102544;-53
2022/11/22 08:57:09;;;;;;;45.90;43.30;;;;;;;12.89;73.82;100633.03;5009277;28;102629;-53
2022/11/22 08:59:35;;;;;;;43.75;41.30;;;;;;;12.91;73.80;100625.38;4998871;28;104018;-53
2022/11/22 09:02:03;;;;;;;40.63;38.22;;;;;;;12.91;73.77;100614.47;5000552;28;102180;-53
2022/11/22 09:04:30;;;;;;;40.70;38.38;;;;;;;12.93;73.74;100625.09;5004942;28;102345;-53
2022/11/22 09:06:59;;;;;;;43.55;41.10;;;;;;;12.89;73.93;100616.66;5003757;28;102354;-54
2022/11/22 09:09:26;;;;;;;43.05;40.65;;;;;;;12.92;73.79;100615.28;5002181;28;103876;-53
2022/11/22 09:11:52;;;;;;;40.08;37.72;;;;;;;12.90;74.01;100617.47;5005927;28;102161;-53
2022/11/22 09:14:20;;;;;;;42.35;39.90;;;;;;;12.90;73.80;100623.75;5014780;28;102020;-54
2022/11/22 09:16:47;;;;;;;38.45;36.28;;;;;;;12.92;74.00;100615.28;5005662;28;102519;-53
2022/11/22 09:19:13;;;;;;;41.55;39.08;;;;;;;12.89;73.91;100622.13;4995693;28;103896;-53
2022/11/22 09:21:40;;;;;;;41.65;39.28;;;;;;;12.92;73.83;100612.53;5000743;28;102323;-53
2022/11/22 09:24:07;;;;;;;41.80;39.40;;;;;;;12.90;73.84;100607.34;5011665;28;102778;-53
2022/11/22 09:26:34;;;;;;;39.58;37.30;;;;;;;12.91;73.91;100597.22;5005374;28;102263;-53
2022/11/22 09:29:02;;;;;;;41.15;38.85;;;;;;;12.91;73.97;100591.78;5006411;28;104084;-53
2022/11/22 09:31:31;;;;;;;39.65;37.33;;;;;;;12.91;73.72;100589.03;5009914;28;102508;-53
2022/11/22 09:36:36;;;;;;;44.03;41.47;;;;;;;12.91;73.79;100597.22;5191539;22;102534;-53
2022/11/22 09:39:03;;;;;;;41.20;38.92;;;;;;;12.91;73.88;100599.97;4972252;28;108319;-55
2022/11/22 09:41:59;;;;;;;42.15;39.75;;;;;;;12.91;73.99;100605.44;4971184;28;103473;-55
2022/11/22 09:44:40;;;;;;;41.72;39.35;;;;;;;12.93;73.73;100608.69;4971665;28;102569;-54
2022/11/22 09:47:21;;;;;;;37.55;35.45;;;;;;;12.91;74.00;100605.44;4959957;28;102121;-54
2022/11/22 09:50:21;;;;;;;38.75;36.55;;;;;;;12.90;73.87;100618.28;4976983;28;104013;-54
2022/11/22 09:52:52;;;;;;;40.30;38.05;;;;;;;12.90;73.86;100601.88;4971658;28;102326;-54
2022/11/22 09:55:25;;;;;;;42.45;40.05;;;;;;;12.94;73.95;100607.59;4972161;28;102404;-54
2022/11/22 09:58:03;;;;;;;40.25;37.95;;;;;;;12.95;73.70;100611.97;4971990;28;104754;-54
2022/11/22 10:00:30;;;;;;;41.45;39.15;;;;;;;12.93;73.81;100601.31;4970730;28;103999;-54
2022/11/22 10:03:04;;;;;;;40.25;37.95;;;;;;;12.95;74.02;100599.13;4959224;28;103732;-54
2022/11/22 10:05:37;;;;;;;37.25;35.08;;;;;;;12.96;74.39;100605.38;4960786;28;102402;-54
2022/11/22 10:08:18;;;;;;;39.75;37.55;;;;;;;12.97;74.33;100590.63;4960613;28;102705;-55
2022/11/22 10:10:48;;;;;;;35.45;33.35;;;;;;;12.96;73.89;100589.81;4958765;28;104439;-54
2022/11/22 10:13:22;;;;;;;36.88;34.83;;;;;;;12.96;74.07;100594.47;4961001;28;103448;-54
2022/11/22 10:15:57;;;;;;;36.83;34.78;;;;;;;12.98;74.15;100592.25;4960499;28;102046;-54
2022/11/22 10:18:33;;;;;;;41.70;39.30;;;;;;;12.98;74.16;100594.97;4962271;28;102194;-54
2022/11/22 10:20:59;;;;;;;36.35;34.22;;;;;;;12.98;74.05;100586.78;4958136;28;103979;-54
2022/11/22 10:23:27;;;;;;;36.85;34.67;;;;;;;12.98;74.30;100576.69;4957918;28;102610;-54
2022/11/22 10:25:57;;;;;;;39.80;37.55;;;;;;;12.98;74.25;100575.84;4957477;28;102387;-54
2022/11/22 10:28:32;;;;;;;39.00;36.72;;;;;;;12.96;74.14;100578.88;4960769;28;102193;-54
2022/11/22 10:31:06;;;;;;;40.47;38.15;;;;;;;12.99;74.07;100577.50;4958249;28;104601;-53
2022/11/22 10:33:41;;;;;;;39.13;36.88;;;;;;;12.98;74.17;100581.31;4959924;28;102584;-54
2022/11/22 10:36:25;;;;;;;39.08;36.83;;;;;;;12.97;74.21;100585.16;4942663;28;102757;-54
2022/11/22 10:39:09;;;;;;;38.08;35.88;;;;;;;12.96;74.27;100583.53;4939505;28;105187;-54
2022/11/22 10:41:48;;;;;;;35.08;33.05;;;;;;;12.96;74.13;100589.81;4937566;28;103917;-54
2022/11/22 10:44:26;;;;;;;38.28;36.08;;;;;;;12.96;74.03;100583.53;4940358;28;102510;-54
2022/11/22 10:47:02;;;;;;;36.45;34.42;;;;;;;12.99;74.22;100577.50;4937912;28;102076;-55
2022/11/22 10:49:43;;;;;;;40.40;38.13;;;;;;;12.96;74.37;100578.88;4939111;28;102184;-54
2022/11/22 10:52:20;;;;;;;39.10;36.92;;;;;;;12.96;74.29;100586.28;4939266;28;103890;-54
2022/11/22 10:54:57;;;;;;;36.22;34.13;;;;;;;12.97;73.84;100585.16;4940701;28;103779;-55
2022/11/22 10:57:31;;;;;;;34.47;32.42;;;;;;;12.97;74.13;100598.81;4941064;28;102679;-53
2022/11/22 11:00:14;;;;;;;37.10;34.95;;;;;;;12.96;74.29;100595.28;4941934;28;102937;-54
2022/11/22 11:02:58;;;;;;;34.88;32.92;;;;;;;12.96;74.33;100599.94;4948190;28;104171;-54
2022/11/22 11:05:33;;;;;;;35.15;33.15;;;;;;;12.96;74.32;100611.66;4947357;28;102387;-54
2022/11/22 11:08:00;;;;;;;38.28;36.05;;;;;;;12.95;74.37;100601.84;4935593;28;102525;-54
2022/11/22 11:10:33;;;;;;;37.50;35.35;;;;;;;12.96;74.38;100603.47;4939479;28;103704;-54
2022/11/22 11:13:04;;;;;;;37.75;35.53;;;;;;;12.95;74.42;100609.22;4938059;28;103985;-53
2022/11/22 11:15:35;;;;;;;40.15;37.85;;;;;;;12.95;74.24;100610.03;4946050;28;102526;-54
2022/11/22 11:18:07;;;;;;;37.97;35.78;;;;;;;12.96;74.45;100610.84;4952547;28;102247;-53
2022/11/22 11:20:40;;;;;;;36.65;34.50;;;;;;;12.95;74.03;100610.03;4949281;28;102269;-54
2022/11/22 11:23:07;;;;;;;39.42;37.17;;;;;;;12.95;74.31;100614.69;4943442;28;104131;-54
2022/11/22 11:25:42;;;;;;;37.83;35.63;;;;;;;12.95;74.33;100609.22;4948230;28;102418;-54